Observations for Trim Patrick St
| Time | AQI | Temp °C | Hum % | Pres Pa | CO μg/m³ | H₂S μg/m³ | NO μg/m³ | NO₂ μg/m³ | O₃ μg/m³ | SO₂ μg/m³ | PM1 μg/m³ | PM2.5 μg/m³ | PM10 μg/m³ |
|---|---|---|---|---|---|---|---|---|---|---|---|---|---|
| Saturday 8 August 2026 | |||||||||||||
| 13:58 | 2 | 29.8 | 35 | 69,240 | 0 | 0 | 1.03 | 10.72 | 79.36 | 13.02 | 2 | 8.18 | 9 |
| 13:57 | 2 | 29.8 | 35 | 69,236 | 0 | 0 | 0.98 | 12.75 | 96.21 | 12.53 | 2.86 | 8.17 | 8.98 |
| 13:56 | 2 | 29.8 | 34 | 69,228 | 0 | 0 | 1.02 | 11.26 | 76.34 | 12.58 | 2.86 | 9 | 9.9 |
| 13:55 | 2 | 29.8 | 35 | 69,218 | 0 | 0 | 0.99 | 11.99 | 103.04 | 13.3 | 2 | 7.38 | 8.12 |
| 13:54 | 2 | 29.8 | 34 | 69,212 | 0 | 0 | 1.01 | 11.13 | 84.13 | 12.72 | 2 | 7.42 | 8.16 |
| 13:53 | 2 | 29.8 | 34 | 69,201 | 0 | 0 | 1.02 | 10.7 | 71.12 | 12 | 2.86 | 8.19 | 9.01 |
| 13:52 | 2 | 29.8 | 34 | 69,191 | 0 | 0 | 1.07 | 11.14 | 89.44 | 12.17 | 2 | 7.42 | 8.16 |
| 13:51 | 2 | 29.8 | 34 | 69,173 | 0 | 0 | 1.06 | 10.38 | 73.28 | 12.47 | 2.86 | 9.83 | 10.81 |
| 13:50 | 2 | 29.8 | 34 | 69,179 | 0 | 0 | 1.04 | 10.92 | 86.15 | 13.16 | 2 | 8.19 | 9.01 |
| 13:49 | 2 | 29.8 | 35 | 69,185 | 0 | 0 | 0.99 | 10.63 | 88.06 | 12.22 | 2 | 7.36 | 8.1 |
| 13:48 | 2 | 29.8 | 34 | 69,193 | 0 | 0 | 1.01 | 10.48 | 75.13 | 12.44 | 2 | 7.41 | 8.15 |
| 13:47 | 2 | 29.8 | 34 | 69,206 | 0 | 0 | 1.07 | 9.39 | 59.31 | 12.22 | 2 | 8.24 | 9.06 |
| 13:46 | 2 | 29.8 | 34 | 69,193 | 0 | 0 | 0.97 | 10.93 | 77.11 | 12.14 | 2 | 7.4 | 8.14 |
| 13:45 | 2 | 29.7 | 34 | 69,201 | 0 | 0 | 0.98 | 13.33 | 93.64 | 12.18 | 2 | 7.39 | 8.13 |
| 13:44 | 2 | 29.7 | 34 | 69,183 | 0 | 0 | 0.95 | 10.96 | 77.05 | 11.8 | 2 | 7.41 | 8.15 |
| 13:43 | 2 | 29.7 | 34 | 69,191 | 0 | 0 | 0.97 | 10.96 | 72.76 | 11.75 | 2 | 8.21 | 9.03 |
| 13:42 | 2 | 29.7 | 35 | 69,201 | 0 | 0 | 0.92 | 10.52 | 62.13 | 11.7 | 2.86 | 8.92 | 9.81 |
| 13:41 | 2 | 29.6 | 36 | 69,181 | 0 | 0 | 0.95 | 11.92 | 100.57 | 12.51 | 2 | 8.12 | 8.93 |
| 13:40 | 2 | 29.6 | 35 | 69,189 | 0 | 0 | 0.94 | 10.39 | 75.83 | 12.07 | 2.86 | 8.13 | 8.95 |
| 13:39 | 2 | 29.5 | 34 | 69,167 | 0 | 0 | 1.03 | 11.86 | 99.81 | 11.81 | 2 | 8.2 | 9.02 |